Time;durP1;ratioP1;P1;durP2;ratioP2;P2;SDS_P1;SDS_P2;PMS_P1;PMS_P2;Temp;Humidity;BMP_temperature;BMP_pressure;BME280_temperature;BME280_humidity;BME280_pressure;Samples;Min_cycle;Max_cycle;Signal;HPM_P1;HPM_P2
2023/09/11 00:01:05;;;;;;;11.15;8.40;;;;;;;23.44;82.51;101178.03;5264490;28;20483;-79
2023/09/11 00:03:36;;;;;;;13.27;8.43;;;;;;;23.35;82.63;101181.25;5266050;28;20387;-79
2023/09/11 00:06:07;;;;;;;12.63;8.20;;;;;;;23.26;83.10;101182.63;5264165;28;20037;-79
2023/09/11 00:08:39;;;;;;;13.18;8.48;;;;;;;23.24;83.20;101179.22;5281475;28;20037;-80
2023/09/11 00:11:10;;;;;;;14.77;9.00;;;;;;;23.15;83.60;101174.44;5265131;28;20039;-80
2023/09/11 00:13:42;;;;;;;12.18;8.88;;;;;;;23.15;83.79;101177.09;5247664;28;20818;-79
2023/09/11 00:16:13;;;;;;;10.88;8.90;;;;;;;22.93;84.88;101173.03;5265315;28;20110;-79
2023/09/11 00:18:45;;;;;;;13.23;8.90;;;;;;;23.04;83.82;101168.88;5265000;28;20040;-79
2023/09/11 00:21:16;;;;;;;16.17;9.35;;;;;;;22.97;84.35;101168.38;5265672;28;20274;-79
2023/09/11 00:23:48;;;;;;;11.07;8.57;;;;;;;23.07;84.52;101171.34;5265432;28;20548;-78
2023/09/11 00:26:19;;;;;;;12.87;8.60;;;;;;;22.97;84.32;101164.88;5264634;28;20319;-80
2023/09/11 00:28:50;;;;;;;15.10;8.43;;;;;;;23.01;84.28;101166.41;5265517;28;20065;-80
2023/09/11 00:31:22;;;;;;;10.35;8.05;;;;;;;23.07;83.70;101166.03;5265897;28;20383;-80
2023/09/11 00:33:53;;;;;;;19.52;11.32;;;;;;;23.09;82.31;101170.34;5265625;28;20037;-79
2023/09/11 00:36:25;;;;;;;20.97;10.60;;;;;;;23.14;82.74;101166.59;5265121;28;20148;-79
2023/09/11 00:38:56;;;;;;;11.73;9.43;;;;;;;23.10;82.74;101177.41;5265270;28;20392;-78
2023/09/11 00:41:28;;;;;;;13.13;8.10;;;;;;;23.08;82.49;101167.78;5263779;28;20055;-80
2023/09/11 00:43:59;;;;;;;14.27;8.73;;;;;;;23.01;82.67;101164.59;5264013;28;20040;-79
2023/09/11 00:46:30;;;;;;;12.67;9.00;;;;;;;23.01;82.22;101166.41;5264564;28;20816;-79
2023/09/11 00:49:02;;;;;;;16.43;9.30;;;;;;;22.93;83.03;101165.06;5264603;28;20099;-79
2023/09/11 00:51:35;;;;;;;14.02;9.02;;;;;;;22.89;83.20;101168.84;5265185;28;20388;-79
2023/09/11 00:54:06;;;;;;;10.70;8.35;;;;;;;22.79;83.94;101167.66;5263715;28;20040;-79
2023/09/11 00:56:38;;;;;;;11.65;8.15;;;;;;;22.77;84.36;101169.56;5264360;28;20492;-79
2023/09/11 00:59:11;;;;;;;12.32;8.35;;;;;;;22.78;84.64;101168.59;5246507;28;20048;-79
2023/09/11 01:01:43;;;;;;;10.90;8.63;;;;;;;22.63;85.06;101167.69;5264060;28;20048;-79
2023/09/11 01:04:16;;;;;;;14.60;9.27;;;;;;;22.67;84.78;101161.28;5264915;28;20166;-79
2023/09/11 01:06:47;;;;;;;13.45;9.68;;;;;;;22.64;84.00;101156.13;5263073;28;20094;-79
2023/09/11 01:09:19;;;;;;;16.60;8.80;;;;;;;22.56;85.09;101161.88;5264282;28;20391;-80
2023/09/11 01:11:50;;;;;;;11.00;8.05;;;;;;;22.51;85.38;101158.63;5264737;28;20029;-78
2023/09/11 01:14:22;;;;;;;14.90;9.20;;;;;;;22.51;85.25;101157.78;5266579;28;20096;-80
2023/09/11 01:17:29;;;;;;;12.57;8.20;;;;;;;22.49;84.43;101160.53;5265166;28;20082;-79
2023/09/11 01:20:33;;;;;;;13.32;8.73;;;;;;;22.49;84.06;101154.34;5260861;28;20442;-79
2023/09/11 01:23:20;;;;;;;18.17;9.10;;;;;;;22.54;83.66;101153.16;5266097;28;20072;-79
2023/09/11 01:25:57;;;;;;;14.23;8.80;;;;;;;22.43;84.56;101160.88;5282494;28;20056;-81
2023/09/11 01:29:09;;;;;;;12.98;8.10;;;;;;;22.38;85.46;101162.94;5284149;28;20064;-78
2023/09/11 01:31:44;;;;;;;11.70;9.33;;;;;;;22.34;85.17;101158.72;5273735;28;20039;-79
2023/09/11 01:34:15;;;;;;;12.68;9.05;;;;;;;22.29;85.39;101156.31;5268338;28;20040;-79
2023/09/11 01:36:46;;;;;;;14.80;8.57;;;;;;;22.19;85.12;101145.34;5266171;28;20057;-79
2023/09/11 01:39:18;;;;;;;11.57;8.37;;;;;;;22.26;85.44;101147.66;5264295;28;20457;-79
2023/09/11 01:41:53;;;;;;;14.50;8.27;;;;;;;22.24;84.90;101154.84;5264246;28;20423;-78
2023/09/11 01:44:32;;;;;;;15.52;8.98;;;;;;;22.13;85.07;101147.47;5264305;28;20112;-79
2023/09/11 01:47:05;;;;;;;13.73;8.63;;;;;;;22.15;85.03;101137.63;5263040;28;20047;-78
2023/09/11 01:49:38;;;;;;;17.13;7.88;;;;;;;22.25;84.91;101148.59;5264569;28;20074;-79
2023/09/11 01:52:15;;;;;;;15.55;9.00;;;;;;;22.13;84.30;101147.47;5264551;28;20083;-79
2023/09/11 01:54:47;;;;;;;11.60;8.68;;;;;;;22.06;85.03;101146.97;5262970;28;20062;-79
2023/09/11 01:57:18;;;;;;;15.25;8.25;;;;;;;22.09;85.30;101143.28;5267127;28;20059;-78
2023/09/11 01:59:50;;;;;;;19.40;9.02;;;;;;;22.08;85.03;101141.56;5267042;28;20075;-79
2023/09/11 02:02:21;;;;;;;15.13;8.97;;;;;;;21.94;85.76;101137.88;5268407;28;20086;-78
2023/09/11 02:04:52;;;;;;;13.03;8.27;;;;;;;22.04;86.00;101138.22;5249275;28;20080;-79
2023/09/11 02:07:24;;;;;;;11.63;8.17;;;;;;;22.02;85.81;101134.78;5247488;28;20112;-79
2023/09/11 02:09:55;;;;;;;12.73;8.50;;;;;;;21.80;86.25;101133.34;5246525;28;20037;-79
2023/09/11 02:12:27;;;;;;;9.80;8.87;;;;;;;21.80;86.49;101137.75;5246649;28;20057;-79
2023/09/11 02:14:58;;;;;;;13.53;7.93;;;;;;;21.63;87.94;101142.19;5248943;28;20460;-79
2023/09/11 02:17:29;;;;;;;11.60;7.93;;;;;;;21.79;87.54;101139.56;5250916;28;20029;-80
2023/09/11 02:20:01;;;;;;;15.13;8.47;;;;;;;21.60;88.04;101136.19;5266872;28;20056;-79
2023/09/11 02:22:33;;;;;;;15.95;9.15;;;;;;;21.54;88.47;101125.91;5258911;28;20034;-79
2023/09/11 02:25:05;;;;;;;10.43;8.40;;;;;;;21.49;88.60;101140.28;5249165;28;20094;-79
2023/09/11 02:27:36;;;;;;;11.07;7.65;;;;;;;21.47;89.20;101125.34;5248393;28;20466;-80
2023/09/11 02:30:08;;;;;;;13.77;8.60;;;;;;;21.42;89.49;101128.25;5263915;28;20021;-79
2023/09/11 02:32:39;;;;;;;15.32;8.85;;;;;;;21.28;90.19;101129.00;5268674;28;20029;-80
2023/09/11 02:35:11;;;;;;;15.57;9.20;;;;;;;21.30;90.46;101127.09;5268158;28;20127;-79
2023/09/11 02:37:42;;;;;;;13.43;9.37;;;;;;;21.33;90.18;101125.22;5268749;28;20037;-79
2023/09/11 02:40:14;;;;;;;11.73;8.17;;;;;;;21.29;90.34;101130.69;5267536;28;20472;-79
2023/09/11 02:42:45;;;;;;;14.07;8.82;;;;;;;21.32;90.34;101129.69;5266556;28;20037;-79
2023/09/11 02:45:16;;;;;;;14.80;8.53;;;;;;;21.08;91.53;101132.66;5268893;28;20068;-79
2023/09/11 02:47:48;;;;;;;14.50;9.17;;;;;;;21.02;91.70;101127.66;5267870;28;20033;-80
2023/09/11 02:50:19;;;;;;;15.00;8.60;;;;;;;20.94;92.22;101119.25;5268711;28;20468;-80
2023/09/11 02:52:50;;;;;;;10.27;7.80;;;;;;;21.00;91.94;101128.69;5267110;28;20480;-79
2023/09/11 02:55:22;;;;;;;11.30;8.47;;;;;;;20.93;92.83;101121.06;5266938;28;20029;-79
2023/09/11 02:57:53;;;;;;;12.40;8.43;;;;;;;20.94;92.67;101130.69;5265660;28;20095;-79
2023/09/11 03:00:25;;;;;;;9.57;7.87;;;;;;;21.00;92.41;101121.59;5268239;28;20040;-81
2023/09/11 03:02:56;;;;;;;8.47;7.57;;;;;;;20.79;93.36;101120.03;5267511;28;20072;-80
2023/09/11 03:05:28;;;;;;;12.35;8.40;;;;;;;20.79;93.57;101118.25;5267654;28;20060;-80
2023/09/11 03:08:00;;;;;;;13.85;8.27;;;;;;;20.72;93.91;101120.34;5267709;28;20040;-80
2023/09/11 03:10:31;;;;;;;9.20;8.30;;;;;;;20.67;93.88;101113.56;5266474;28;20110;-80
2023/09/11 03:13:03;;;;;;;9.97;8.20;;;;;;;20.67;94.36;101111.78;5266936;28;20029;-80
2023/09/11 03:15:34;;;;;;;12.30;8.63;;;;;;;20.63;94.68;101117.28;5267488;28;20036;-80
2023/09/11 03:18:06;;;;;;;11.90;9.00;;;;;;;20.62;94.19;101103.16;5265571;28;20479;-80
2023/09/11 03:20:38;;;;;;;12.47;8.63;;;;;;;20.51;94.71;101101.06;5267535;28;20033;-80
2023/09/11 03:23:09;;;;;;;10.98;8.60;;;;;;;20.50;94.96;101098.47;5267395;28;20268;-80
2023/09/11 03:25:45;;;;;;;11.35;7.97;;;;;;;20.43;95.43;101097.94;5266832;28;20032;-80
2023/09/11 03:28:17;;;;;;;10.30;9.10;;;;;;;20.39;95.29;101094.56;5266623;28;20052;-80
2023/09/11 03:30:48;;;;;;;13.50;8.63;;;;;;;20.39;95.48;101093.72;5268058;28;20037;-80
2023/09/11 03:33:20;;;;;;;12.53;8.97;;;;;;;20.46;95.18;101092.47;5268882;28;20025;-80
2023/09/11 03:35:51;;;;;;;15.57;8.73;;;;;;;20.47;94.81;101091.53;5272390;28;20060;-79
2023/09/11 03:38:22;;;;;;;15.37;9.20;;;;;;;20.43;95.09;101089.09;5278897;28;20096;-79
2023/09/11 03:40:55;;;;;;;12.63;8.40;;;;;;;20.49;95.21;101088.81;5269381;28;20392;-79
2023/09/11 03:43:27;;;;;;;16.45;8.38;;;;;;;20.38;95.22;101084.91;5265607;28;20033;-79
2023/09/11 03:45:58;;;;;;;16.87;8.27;;;;;;;20.40;95.31;101085.69;5266141;28;20055;-79
2023/09/11 03:48:30;;;;;;;13.10;8.83;;;;;;;20.43;94.34;101089.09;5265824;28;20079;-79
2023/09/11 03:51:01;;;;;;;12.70;9.17;;;;;;;20.39;94.46;101086.59;5265672;28;20109;-79
2023/09/11 03:53:33;;;;;;;16.77;9.20;;;;;;;20.37;94.50;101080.53;5266101;28;20369;-79
2023/09/11 03:56:05;;;;;;;;;;;;;;;20.38;92.70;101079.63;5263781;28;20035;-79
2023/09/11 03:58:36;;;;;;;10.30;8.87;;;;;;;20.28;94.34;101077.50;5265868;28;19916;-79
2023/09/11 04:01:08;;;;;;;11.07;9.00;;;;;;;20.23;94.25;101075.06;5266266;28;20029;-80
2023/09/11 04:03:41;;;;;;;16.40;8.43;;;;;;;20.20;94.58;101064.63;5266404;28;20074;-80
2023/09/11 04:06:13;;;;;;;13.25;8.90;;;;;;;20.26;94.06;101063.47;5266496;28;20112;-80
2023/09/11 04:08:44;;;;;;;12.23;7.97;;;;;;;20.31;93.86;101057.00;5265794;28;20080;-79
2023/09/11 04:11:19;;;;;;;12.27;8.77;;;;;;;20.31;94.08;101070.25;5266081;28;20078;-80
2023/09/11 04:13:50;;;;;;;14.85;9.50;;;;;;;20.28;93.35;101056.31;5265355;28;20058;-80
2023/09/11 04:16:21;;;;;;;15.30;8.40;;;;;;;20.25;93.06;101056.47;5265498;28;20108;-80
2023/09/11 04:18:53;;;;;;;13.43;8.47;;;;;;;20.28;93.09;101061.59;5264477;28;20111;-80
2023/09/11 04:21:24;;;;;;;21.47;9.10;;;;;;;20.32;92.50;101060.53;5264391;28;20037;-79
2023/09/11 04:23:56;;;;;;;15.97;8.77;;;;;;;20.27;92.45;101055.47;5263850;28;20369;-79
2023/09/11 04:26:28;;;;;;;15.23;9.07;;;;;;;20.24;92.62;101050.31;5263936;28;20052;-79
2023/09/11 04:29:00;;;;;;;14.93;8.55;;;;;;;20.26;92.37;101045.78;5265690;28;20033;-79
2023/09/11 04:31:31;;;;;;;9.63;8.00;;;;;;;20.23;92.43;101048.59;5264976;28;20056;-79
2023/09/11 04:34:02;;;;;;;18.33;8.73;;;;;;;20.22;92.30;101041.56;5264671;28;20037;-80
2023/09/11 04:36:34;;;;;;;10.23;7.67;;;;;;;20.18;92.75;101038.22;5263862;28;20057;-80
2023/09/11 04:39:06;;;;;;;12.35;8.27;;;;;;;20.18;92.23;101035.59;5263719;28;20040;-80
2023/09/11 04:41:37;;;;;;;17.23;8.80;;;;;;;20.20;92.17;101046.09;5265012;28;20388;-81
2023/09/11 04:44:09;;;;;;;17.70;8.53;;;;;;;20.19;92.22;101047.03;5265206;28;20033;-80
2023/09/11 04:46:40;;;;;;;14.37;8.23;;;;;;;20.16;91.88;101048.03;5264776;28;20523;-80
2023/09/11 04:49:11;;;;;;;19.17;8.67;;;;;;;20.14;92.32;101054.31;5265012;28;20029;-81
2023/09/11 04:51:43;;;;;;;16.00;8.90;;;;;;;20.13;91.89;101049.97;5267156;28;20166;-81
2023/09/11 04:54:14;;;;;;;12.43;8.73;;;;;;;20.13;91.96;101057.94;5266806;28;20033;-81
2023/09/11 04:56:46;;;;;;;20.87;8.87;;;;;;;20.21;91.43;101061.91;5264916;28;20071;-80
2023/09/11 04:59:17;;;;;;;12.47;8.67;;;;;;;20.13;91.56;101058.78;5265178;28;20556;-81
2023/09/11 05:01:49;;;;;;;16.17;9.23;;;;;;;20.16;91.78;101058.63;5264748;28;20036;-81
2023/09/11 05:04:20;;;;;;;14.00;9.07;;;;;;;20.16;90.97;101063.06;5265632;28;20039;-81
2023/09/11 05:06:53;;;;;;;16.67;8.80;;;;;;;20.06;91.76;101056.50;5263785;28;20029;-81
2023/09/11 05:09:24;;;;;;;;;;;;;;;20.10;90.62;101063.38;5264302;28;20028;-82
2023/09/11 05:11:55;;;;;;;18.67;8.73;;;;;;;20.04;91.68;101068.03;5264034;28;19912;-80
2023/09/11 05:14:27;;;;;;;17.80;8.83;;;;;;;20.11;90.96;101063.28;5262735;28;20443;-82
2023/09/11 05:16:58;;;;;;;15.30;8.87;;;;;;;20.07;91.56;101063.50;5263349;28;20060;-80
2023/09/11 05:19:29;;;;;;;13.63;9.00;;;;;;;20.05;91.40;101066.22;5264334;28;20170;-81
2023/09/11 05:22:01;;;;;;;17.53;10.07;;;;;;;20.14;90.61;101064.91;5263551;28;20087;-81
2023/09/11 05:24:33;;;;;;;13.30;8.43;;;;;;;20.16;89.86;101071.00;5263814;28;20060;-81
2023/09/11 05:27:04;;;;;;;22.67;9.95;;;;;;;20.11;90.10;101067.72;5264298;28;20112;-81
2023/09/11 05:29:36;;;;;;;12.23;7.83;;;;;;;20.13;89.41;101068.50;5264682;28;20124;-81
2023/09/11 05:32:07;;;;;;;16.57;8.57;;;;;;;20.23;89.09;101073.25;5264111;28;20036;-81
2023/09/11 05:34:38;;;;;;;15.43;7.63;;;;;;;20.23;88.91;101067.97;5263817;28;20036;-79
2023/09/11 05:37:10;;;;;;;13.43;8.07;;;;;;;20.26;88.54;101069.63;5263624;28;20106;-80
2023/09/11 05:39:43;;;;;;;16.23;7.33;;;;;;;20.17;89.17;101076.22;5263472;28;20036;-80
2023/09/11 05:42:15;;;;;;;12.13;8.05;;;;;;;20.28;88.93;101080.97;5263277;28;20455;-80
2023/09/11 05:44:48;;;;;;;14.30;8.00;;;;;;;20.24;88.47;101079.44;5264254;28;20129;-80
2023/09/11 05:47:19;;;;;;;16.02;8.50;;;;;;;20.25;88.43;101078.47;5264001;28;20029;-81
2023/09/11 05:49:51;;;;;;;13.70;8.38;;;;;;;20.30;88.02;101087.09;5265035;28;20497;-81
2023/09/11 05:52:22;;;;;;;17.43;8.37;;;;;;;20.30;88.29;101088.84;5264404;28;20460;-81
2023/09/11 05:54:53;;;;;;;16.50;8.10;;;;;;;20.34;88.20;101093.94;5263964;28;20033;-81
2023/09/11 05:57:25;;;;;;;15.90;8.43;;;;;;;20.35;88.73;101098.31;5263966;28;20057;-80
2023/09/11 05:59:56;;;;;;;13.60;8.47;;;;;;;20.36;87.98;101097.34;5264103;28;20502;-81
2023/09/11 06:02:28;;;;;;;14.17;8.20;;;;;;;20.40;87.62;101090.13;5263565;28;20066;-81
2023/09/11 06:04:59;;;;;;;15.33;8.30;;;;;;;20.52;87.13;101099.25;5263708;28;20055;-81
2023/09/11 06:07:31;;;;;;;21.63;8.80;;;;;;;20.46;86.59;101104.84;5278954;28;20112;-80
2023/09/11 06:10:04;;;;;;;13.88;8.25;;;;;;;20.56;86.57;101098.19;5263065;28;20036;-80
2023/09/11 06:12:35;;;;;;;14.57;8.82;;;;;;;20.57;86.75;101105.19;5263966;28;20056;-80
2023/09/11 06:15:07;;;;;;;24.23;8.13;;;;;;;20.58;86.32;101110.41;5262559;28;20064;-81
2023/09/11 06:17:38;;;;;;;15.13;8.23;;;;;;;20.66;86.43;101110.06;5262129;28;20455;-80
2023/09/11 06:20:10;;;;;;;12.17;8.57;;;;;;;20.69;85.64;101106.41;5263594;28;20025;-80
2023/09/11 06:22:43;;;;;;;18.20;8.40;;;;;;;20.68;86.02;101107.31;5264140;28;20108;-80
2023/09/11 06:25:15;;;;;;;14.52;7.88;;;;;;;20.69;85.11;101101.97;5264715;28;20070;-80
2023/09/11 06:27:46;;;;;;;17.98;9.15;;;;;;;20.76;85.09;101113.94;5264494;28;20041;-79
2023/09/11 06:30:18;;;;;;;17.73;9.13;;;;;;;20.82;85.53;101109.25;5264884;28;20108;-80
2023/09/11 06:32:49;;;;;;;18.20;8.77;;;;;;;20.80;85.05;101106.72;5262122;28;20040;-80
2023/09/11 06:35:21;;;;;;;14.80;8.27;;;;;;;20.86;84.91;101100.25;5264495;28;20481;-80
2023/09/11 06:37:52;;;;;;;14.37;7.80;;;;;;;20.92;84.56;101108.72;5263318;28;20267;-80
2023/09/11 06:40:23;;;;;;;19.40;8.77;;;;;;;20.85;84.69;101112.63;5263889;28;20082;-81
2023/09/11 06:42:55;;;;;;;20.17;8.10;;;;;;;20.92;84.54;101110.53;5265510;28;20040;-80
2023/09/11 06:45:26;;;;;;;14.70;8.25;;;;;;;20.94;84.96;101117.44;5266574;28;20188;-80
2023/09/11 06:47:58;;;;;;;14.20;8.47;;;;;;;20.94;84.38;101114.81;5268119;28;20029;-80
2023/09/11 06:50:30;;;;;;;12.70;8.75;;;;;;;20.87;84.29;101115.22;5266215;28;20116;-81
2023/09/11 06:53:01;;;;;;;14.97;8.20;;;;;;;20.90;84.28;101121.22;5266747;28;20040;-79
2023/09/11 06:55:33;;;;;;;14.25;8.02;;;;;;;20.93;84.63;101110.44;5267757;28;20057;-80
2023/09/11 06:58:04;;;;;;;16.67;9.10;;;;;;;20.94;84.60;101117.44;5266788;28;20089;-81
2023/09/11 07:00:36;;;;;;;18.43;8.50;;;;;;;21.02;84.51;101124.16;5267866;28;20116;-80
2023/09/11 07:03:07;;;;;;;15.50;8.18;;;;;;;21.02;84.69;101125.00;5267631;28;20039;-81
2023/09/11 07:05:39;;;;;;;15.63;9.03;;;;;;;21.06;84.12;101120.44;5283692;28;20058;-80
2023/09/11 07:08:11;;;;;;;18.60;10.00;;;;;;;21.08;83.60;101106.16;5267429;28;20029;-81
2023/09/11 07:10:48;;;;;;;16.20;8.00;;;;;;;21.22;83.68;101104.56;5267609;28;20591;-80
2023/09/11 07:13:19;;;;;;;21.67;9.40;;;;;;;21.29;83.30;101100.66;5268349;28;20486;-81
2023/09/11 07:15:58;;;;;;;19.20;9.83;;;;;;;21.31;83.30;101109.38;5267211;28;20036;-81
2023/09/11 07:18:31;;;;;;;14.13;9.00;;;;;;;21.39;82.92;101109.84;5268480;28;20029;-80
2023/09/11 07:21:02;;;;;;;15.38;9.20;;;;;;;21.46;83.29;101089.16;5267941;28;20025;-79
2023/09/11 07:23:33;;;;;;;14.35;9.77;;;;;;;21.51;82.18;101100.41;5269972;28;20029;-81
2023/09/11 07:26:05;;;;;;;15.93;10.37;;;;;;;21.58;81.88;101103.59;5275622;28;20028;-81
2023/09/11 07:29:04;;;;;;;18.67;9.83;;;;;;;21.68;81.63;101110.09;5274243;28;20400;-79
2023/09/11 07:31:35;;;;;;;16.13;10.25;;;;;;;21.77;81.11;101109.63;5267158;28;20029;-79
2023/09/11 07:34:07;;;;;;;23.50;11.23;;;;;;;21.83;80.97;101109.28;5265997;28;20468;-80
2023/09/11 07:36:39;;;;;;;13.25;10.10;;;;;;;21.87;81.35;101109.13;5266763;28;20587;-79
2023/09/11 07:39:10;;;;;;;16.35;11.85;;;;;;;21.99;81.01;101108.41;5249396;28;20068;-79
2023/09/11 07:41:41;;;;;;;15.53;10.90;;;;;;;22.01;81.04;101107.41;5266497;28;20029;-80
2023/09/11 07:44:13;;;;;;;13.83;10.13;;;;;;;22.19;80.45;101112.63;5265820;28;20044;-79
2023/09/11 07:46:44;;;;;;;15.27;10.43;;;;;;;22.24;80.13;101123.84;5266858;28;20036;-80
2023/09/11 07:49:16;;;;;;;17.33;12.97;;;;;;;22.30;80.15;101112.03;5267265;28;20065;-81
2023/09/11 07:51:47;;;;;;;15.10;11.60;;;;;;;22.44;79.83;101122.72;5266265;28;20041;-80
2023/09/11 07:54:21;;;;;;;18.57;11.40;;;;;;;22.49;78.99;101117.16;5266412;28;20029;-79
2023/09/11 07:56:52;;;;;;;18.77;12.43;;;;;;;22.65;79.65;101120.63;5266473;28;20029;-79
2023/09/11 07:59:23;;;;;;;18.33;12.67;;;;;;;22.76;78.71;101128.84;5267202;28;20075;-80
2023/09/11 08:01:56;;;;;;;18.50;12.57;;;;;;;22.87;78.10;101130.00;5265216;28;20021;-79
2023/09/11 08:04:27;;;;;;;20.80;13.35;;;;;;;22.83;78.05;101129.34;5267050;28;20063;-81
2023/09/11 08:06:59;;;;;;;18.13;14.70;;;;;;;22.90;78.39;101146.63;5267228;28;20041;-80
2023/09/11 08:09:30;;;;;;;19.30;14.07;;;;;;;23.02;78.11;101142.38;5266482;28;20048;-79
2023/09/11 08:12:02;;;;;;;15.87;13.93;;;;;;;23.23;77.72;101139.41;5264854;28;20091;-79
2023/09/11 08:14:33;;;;;;;19.00;15.15;;;;;;;23.21;76.62;101142.16;5265689;28;20264;-79
2023/09/11 08:17:04;;;;;;;19.92;14.07;;;;;;;23.18;77.33;101145.00;5266145;28;20037;-79
2023/09/11 08:19:36;;;;;;;15.87;14.23;;;;;;;23.22;77.02;101143.88;5265837;28;20037;-80
2023/09/11 08:22:07;;;;;;;19.13;15.15;;;;;;;23.28;76.62;101146.19;5265336;28;20507;-80
2023/09/11 08:24:39;;;;;;;21.73;14.63;;;;;;;23.36;76.09;101150.16;5266167;28;20033;-81
2023/09/11 08:27:10;;;;;;;18.27;14.10;;;;;;;23.56;76.37;101141.81;5271054;28;20075;-81
2023/09/11 08:29:41;;;;;;;24.00;15.40;;;;;;;23.66;75.53;101137.63;5266003;28;20033;-79
2023/09/11 08:32:13;;;;;;;20.37;16.17;;;;;;;23.64;74.92;101138.69;5265867;28;20060;-80
2023/09/11 08:34:44;;;;;;;17.40;15.57;;;;;;;23.74;75.84;101138.97;5275742;28;20033;-78
2023/09/11 08:37:16;;;;;;;17.33;14.68;;;;;;;23.75;74.94;101144.19;5278661;28;20033;-79
2023/09/11 08:39:47;;;;;;;23.87;16.20;;;;;;;23.85;75.37;101139.19;5275632;28;20361;-78
2023/09/11 08:42:19;;;;;;;20.50;15.13;;;;;;;23.89;74.36;101138.03;5275228;28;20271;-77
2023/09/11 08:44:50;;;;;;;18.17;15.83;;;;;;;24.16;74.98;101134.56;5274946;28;20045;-77
2023/09/11 08:47:29;;;;;;;21.27;16.50;;;;;;;24.10;73.45;101141.16;5270187;28;20029;-80
2023/09/11 08:50:05;;;;;;;21.80;15.68;;;;;;;24.17;73.25;101142.44;5267408;28;20267;-79
2023/09/11 08:52:38;;;;;;;17.02;15.23;;;;;;;24.46;73.92;101158.34;5265065;28;20052;-79
2023/09/11 08:55:10;;;;;;;19.90;14.68;;;;;;;24.65;71.30;101149.16;5263079;28;20033;-79
2023/09/11 08:57:42;;;;;;;19.42;14.77;;;;;;;25.00;70.54;101145.94;5264985;28;20049;-80
2023/09/11 09:00:14;;;;;;;;;;;;;;;25.62;70.78;101147.94;5263709;28;20055;-80
2023/09/11 09:02:47;;;;;;;21.73;14.32;;;;;;;26.14;65.35;101148.69;5263378;28;19909;-80
2023/09/11 09:05:20;;;;;;;18.05;13.35;;;;;;;26.72;64.28;101147.06;5263939;28;20119;-80
2023/09/11 09:07:52;;;;;;;19.02;13.70;;;;;;;27.07;60.47;101151.56;5262931;28;20028;-80
2023/09/11 09:10:24;;;;;;;;;;;;;;;28.05;59.86;101154.69;5263586;28;20037;-81
2023/09/11 09:12:56;;;;;;;17.05;13.77;;;;;;;27.98;58.51;101144.50;5263591;28;19952;-80
2023/09/11 09:15:30;;;;;;;15.77;11.50;;;;;;;28.36;57.18;101142.31;5263962;28;20037;-79
2023/09/11 09:18:02;;;;;;;15.80;12.30;;;;;;;28.27;53.28;101140.41;5263300;28;20033;-81
2023/09/11 09:20:34;;;;;;;;;;;;;;;29.33;53.83;101152.13;5264215;28;20036;-81
2023/09/11 09:23:06;;;;;;;16.60;11.20;;;;;;;29.02;52.05;101147.53;5262918;28;20357;-80
2023/09/11 09:25:38;;;;;;;15.20;10.85;;;;;;;29.39;52.07;101148.91;5263665;28;20045;-78
2023/09/11 09:28:28;;;;;;;18.80;10.73;;;;;;;29.85;50.35;101163.72;5263343;28;20056;-80
2023/09/11 09:31:00;;;;;;;20.80;11.02;;;;;;;29.81;49.44;101157.75;5263888;28;20475;-80
2023/09/11 09:33:32;;;;;;;15.13;12.35;;;;;;;29.62;48.14;101157.63;5245955;28;20399;-80
2023/09/11 09:36:07;;;;;;;16.77;11.18;;;;;;;30.15;47.66;101154.72;5261664;28;20067;-78
2023/09/11 09:38:38;;;;;;;13.98;10.73;;;;;;;30.83;47.24;101156.66;5263175;28;20442;-77
2023/09/11 09:41:10;;;;;;;19.90;12.57;;;;;;;30.83;45.64;101151.28;5263693;28;20040;-78
2023/09/11 09:43:51;;;;;;;16.05;11.98;;;;;;;30.39;46.01;101153.53;5262813;28;20476;-81
2023/09/11 09:46:22;;;;;;;13.40;9.13;;;;;;;30.77;44.64;101148.28;5263735;28;20476;-80
2023/09/11 09:48:54;;;;;;;16.10;9.90;;;;;;;30.29;44.51;101160.72;5261913;28;20131;-79
2023/09/11 09:51:28;;;;;;;19.33;12.60;;;;;;;30.15;45.71;101153.88;5263905;28;20060;-79
2023/09/11 09:53:59;;;;;;;15.43;10.20;;;;;;;30.58;45.92;101150.00;5262594;28;20040;-78
2023/09/11 09:56:31;;;;;;;14.70;10.95;;;;;;;30.78;44.04;101155.38;5264611;28;20029;-78
2023/09/11 09:59:02;;;;;;;14.80;10.13;;;;;;;30.44;44.90;101143.19;5267565;28;20057;-79
2023/09/11 10:01:44;;;;;;;11.43;9.57;;;;;;;31.24;45.37;101141.16;5272234;28;20032;-79
2023/09/11 10:04:16;;;;;;;15.25;8.82;;;;;;;30.81;42.62;101139.78;5270480;28;20120;-78
2023/09/11 10:06:56;;;;;;;12.45;7.40;;;;;;;31.07;42.24;101145.47;5266138;28;20480;-80
2023/09/11 10:09:28;;;;;;;15.70;8.35;;;;;;;31.68;41.33;101147.81;5264081;28;20029;-79
2023/09/11 10:12:08;;;;;;;11.43;7.75;;;;;;;32.41;41.45;101152.38;5265289;28;20040;-79
2023/09/11 10:14:40;;;;;;;11.23;8.27;;;;;;;32.44;39.33;101141.28;5266498;28;20033;-79
2023/09/11 10:17:12;;;;;;;10.25;7.47;;;;;;;33.08;38.79;101150.91;5266562;28;20033;-79
2023/09/11 10:19:43;;;;;;;12.13;7.20;;;;;;;32.96;37.72;101144.09;5270639;28;20029;-79
2023/09/11 10:22:14;;;;;;;14.23;8.02;;;;;;;33.00;37.61;101147.31;5267517;28;20183;-78
2023/09/11 10:24:46;;;;;;;12.23;8.50;;;;;;;32.49;38.40;101136.25;5268483;28;20510;-78
2023/09/11 10:27:17;;;;;;;11.05;7.28;;;;;;;33.43;37.94;101143.75;5268368;28;20054;-79
2023/09/11 10:30:00;;;;;;;11.95;7.20;;;;;;;33.19;37.36;101151.72;5266535;28;20171;-80
2023/09/11 10:32:57;;;;;;;13.93;8.70;;;;;;;33.22;37.20;101143.28;5269198;28;20033;-80
2023/09/11 10:35:33;;;;;;;12.23;7.38;;;;;;;32.83;37.57;101127.44;5268922;28;20144;-78
2023/09/11 10:38:07;;;;;;;12.85;6.13;;;;;;;32.98;37.56;101130.44;5269318;28;20067;-80
2023/09/11 10:40:39;;;;;;;10.40;5.90;;;;;;;33.24;37.59;101134.00;5269173;28;20033;-79
2023/09/11 10:43:11;;;;;;;9.98;7.43;;;;;;;33.79;35.87;101129.22;5267119;28;20352;-79
2023/09/11 10:45:43;;;;;;;13.13;7.07;;;;;;;33.58;36.82;101129.63;5267861;28;20460;-80
2023/09/11 10:48:31;;;;;;;12.70;6.68;;;;;;;33.81;36.40;101129.91;5266712;28;20044;-79
2023/09/11 10:51:04;;;;;;;14.65;8.43;;;;;;;33.17;36.95;101130.25;5268806;28;20034;-80
2023/09/11 10:53:36;;;;;;;9.65;6.95;;;;;;;33.89;35.83;101127.25;5267958;28;20029;-79
2023/09/11 10:56:07;;;;;;;12.77;9.35;;;;;;;33.48;36.18;101131.63;5267346;28;20040;-80
2023/09/11 10:58:40;;;;;;;12.35;7.22;;;;;;;34.25;35.03;101134.28;5265974;28;20059;-80
2023/09/11 11:01:16;;;;;;;12.75;8.68;;;;;;;34.27;35.59;101129.53;5267138;28;20032;-79
2023/09/11 11:03:48;;;;;;;10.82;7.35;;;;;;;34.65;34.94;101125.34;5268145;28;20426;-79
2023/09/11 11:06:23;;;;;;;11.95;7.05;;;;;;;35.76;34.10;101118.34;5265975;28;20037;-79
2023/09/11 11:08:55;;;;;;;11.57;7.80;;;;;;;36.22;32.82;101112.13;5272071;28;20075;-80
2023/09/11 11:11:29;;;;;;;15.13;8.63;;;;;;;36.06;31.74;101113.06;5267278;28;20415;-79
2023/09/11 11:14:14;;;;;;;10.70;6.13;;;;;;;36.46;33.44;101113.84;5266459;28;20036;-80
2023/09/11 11:16:55;;;;;;;11.18;6.88;;;;;;;35.33;33.21;101120.53;5264863;28;20490;-79
2023/09/11 11:19:29;;;;;;;10.75;7.07;;;;;;;34.68;34.06;101125.00;5266854;28;20388;-80
2023/09/11 11:22:02;;;;;;;8.27;6.18;;;;;;;35.85;32.74;101115.59;5267871;28;20025;-80
2023/09/11 11:24:49;;;;;;;11.73;6.40;;;;;;;35.54;31.70;101116.41;5265766;28;20130;-81
2023/09/11 11:27:20;;;;;;;11.38;6.30;;;;;;;35.81;31.35;101117.81;5266368;28;20029;-79
2023/09/11 11:29:59;;;;;;;13.60;7.00;;;;;;;36.06;31.16;101113.06;5265763;28;20067;-81
2023/09/11 11:32:34;;;;;;;12.88;8.02;;;;;;;35.77;31.23;101108.34;5265772;28;20060;-80
2023/09/11 11:35:09;;;;;;;9.93;7.40;;;;;;;35.94;30.68;101103.69;5266301;28;20032;-79
2023/09/11 11:37:44;;;;;;;8.98;5.47;;;;;;;36.25;30.57;101106.38;5266139;28;20041;-80
2023/09/11 11:40:16;;;;;;;9.40;5.30;;;;;;;37.13;30.08;101106.78;5266838;28;20107;-80
2023/09/11 11:42:47;;;;;;;10.88;6.35;;;;;;;37.52;29.45;101108.38;5265744;28;20044;-81